createdAt,value
2023-12-26T00:00:26.541Z,95793.19
2023-12-26T00:01:28.489Z,95788.69
2023-12-26T00:02:30.200Z,95791.53
2023-12-26T00:03:31.705Z,95787.69
2023-12-26T00:04:33.756Z,95800.94
2023-12-26T00:05:35.536Z,95795.97
2023-12-26T00:06:37.433Z,95792.50
2023-12-26T00:07:40.221Z,95792.69
2023-12-26T00:08:41.732Z,95794.16
2023-12-26T00:09:43.295Z,95787.09
2023-12-26T00:10:45.193Z,95783.13
2023-12-26T00:11:47.684Z,95790.91
2023-12-26T00:12:49.607Z,95781.66
2023-12-26T00:13:51.110Z,95786.09
2023-12-26T00:14:53.057Z,95779.06
2023-12-26T00:15:54.651Z,95784.25
2023-12-26T00:16:56.211Z,95782.56
2023-12-26T00:17:58.093Z,95782.09
2023-12-26T00:18:59.887Z,95772.84
2023-12-26T00:20:01.609Z,95780.06
2023-12-26T00:21:03.566Z,95784.63
2023-12-26T00:22:05.130Z,95773.13
2023-12-26T00:23:06.939Z,95780.78
2023-12-26T00:24:09.383Z,95772.53
2023-12-26T00:25:11.032Z,95764.69
2023-12-26T00:26:12.904Z,95765.63
2023-12-26T00:27:15.482Z,95761.69
2023-12-26T00:28:20.429Z,95760.56
2023-12-26T00:29:21.963Z,95755.56
2023-12-26T00:30:23.941Z,95762.34
2023-12-26T00:31:25.606Z,95764.25
2023-12-26T00:32:27.202Z,95765.25
2023-12-26T00:33:28.886Z,95757.66
2023-12-26T00:34:31.487Z,95761.28
2023-12-26T00:35:33.458Z,95759.28
2023-12-26T00:36:35.037Z,95763.28
2023-12-26T00:37:36.901Z,95762.63
2023-12-26T00:38:38.419Z,95753.69
2023-12-26T00:39:40.306Z,95762.22
2023-12-26T00:40:42.543Z,95755.75
2023-12-26T00:41:44.310Z,95753.34
2023-12-26T00:42:45.984Z,95757.09
2023-12-26T00:43:47.723Z,95754.44
2023-12-26T00:44:49.260Z,95752.50
2023-12-26T00:45:50.803Z,95750.03
2023-12-26T00:46:52.729Z,95750.19
2023-12-26T00:47:58.477Z,95751.03
2023-12-26T00:49:00.726Z,95755.81
2023-12-26T00:50:02.521Z,95753.38
2023-12-26T00:51:04.702Z,95756.41
2023-12-26T00:52:06.639Z,95759.63
2023-12-26T00:53:09.849Z,95762.22
2023-12-26T00:54:11.503Z,95748.22
2023-12-26T00:55:13.241Z,95763.16
2023-12-26T00:56:15.070Z,95760.00
2023-12-26T00:57:17.876Z,95761.66
2023-12-26T00:58:19.575Z,95755.31
2023-12-26T00:59:21.124Z,95767.88
2023-12-26T01:00:23.840Z,95762.81
2023-12-26T01:01:25.448Z,95764.63
2023-12-26T01:02:26.958Z,95768.44
2023-12-26T01:03:28.536Z,95771.09
2023-12-26T01:04:30.197Z,95773.38
2023-12-26T01:05:32.040Z,95770.91
2023-12-26T01:06:33.591Z,95768.94
2023-12-26T01:07:35.476Z,95765.47
2023-12-26T01:08:37.684Z,95760.28
2023-12-26T01:09:39.363Z,95766.94
2023-12-26T01:10:41.105Z,95764.16
2023-12-26T01:11:42.750Z,95758.34
2023-12-26T01:12:44.718Z,95762.16
2023-12-26T01:13:46.341Z,95771.75
2023-12-26T01:14:48.024Z,95760.69
2023-12-26T01:15:49.584Z,95776.06
2023-12-26T01:16:51.356Z,95775.53
2023-12-26T01:17:53.335Z,95781.16
2023-12-26T01:18:56.304Z,95792.22
2023-12-26T01:19:58.590Z,95782.63
2023-12-26T01:21:00.266Z,95790.91
2023-12-26T01:22:01.848Z,95785.97
2023-12-26T01:23:04.122Z,95789.91
2023-12-26T01:24:06.111Z,95790.91
2023-12-26T01:25:07.845Z,95789.78
2023-12-26T01:26:09.547Z,95793.75
2023-12-26T01:27:11.113Z,95783.19
2023-12-26T01:28:12.732Z,95800.38
2023-12-26T01:29:14.311Z,95792.25
2023-12-26T01:30:16.383Z,95796.94
2023-12-26T01:31:18.013Z,95792.91
2023-12-26T01:32:20.605Z,95804.34
2023-12-26T01:33:22.200Z,95797.69
2023-12-26T01:34:23.838Z,95800.34
2023-12-26T01:35:25.375Z,95799.22
2023-12-26T01:36:26.932Z,95799.56
2023-12-26T01:37:28.759Z,95798.09
2023-12-26T01:38:30.598Z,95801.59
2023-12-26T01:39:32.807Z,95806.44
2023-12-26T01:40:34.396Z,95800.75
2023-12-26T01:41:36.713Z,95803.56
2023-12-26T01:42:38.828Z,95797.91
2023-12-26T01:43:40.317Z,95803.63
2023-12-26T01:44:41.888Z,95807.25
2023-12-26T01:45:43.390Z,95801.59
2023-12-26T01:46:45.356Z,95812.00
2023-12-26T01:47:52.982Z,95804.75
2023-12-26T01:48:56.322Z,95801.75
2023-12-26T01:49:58.096Z,95800.75
2023-12-26T01:51:01.681Z,95798.91
2023-12-26T01:52:06.449Z,95800.56
2023-12-26T01:53:08.066Z,95802.59
2023-12-26T01:54:10.428Z,95800.94
2023-12-26T01:55:14.965Z,95809.19
2023-12-26T01:56:16.984Z,95806.66
2023-12-26T01:57:19.912Z,95813.59
2023-12-26T01:58:21.593Z,95811.78
2023-12-26T01:59:24.551Z,95816.59
2023-12-26T02:00:26.320Z,95817.69
2023-12-26T02:01:28.171Z,95823.28
2023-12-26T02:02:33.274Z,95828.59
2023-12-26T02:03:34.975Z,95830.13
2023-12-26T02:04:39.046Z,95831.25
2023-12-26T02:05:41.895Z,95835.88
2023-12-26T02:06:43.466Z,95841.84
2023-12-26T02:07:45.210Z,95839.19
2023-12-26T02:08:47.693Z,95842.97
2023-12-26T02:09:49.229Z,95843.16
2023-12-26T02:10:50.852Z,95839.19
2023-12-26T02:11:53.667Z,95844.16
2023-12-26T02:12:55.555Z,95850.75
2023-12-26T02:13:57.575Z,95841.50
2023-12-26T02:14:59.549Z,95838.03
2023-12-26T02:16:06.970Z,95836.69
2023-12-26T02:17:15.790Z,95840.81
2023-12-26T02:18:18.336Z,95833.34
2023-12-26T02:19:20.666Z,95834.84
2023-12-26T02:20:22.241Z,95836.38
2023-12-26T02:21:23.794Z,95836.84
2023-12-26T02:22:25.373Z,95836.31
2023-12-26T02:23:30.465Z,95838.97
2023-12-26T02:24:32.128Z,95831.56
2023-12-26T02:25:33.731Z,95837.00
2023-12-26T02:26:40.313Z,95839.19
2023-12-26T02:27:42.808Z,95841.13
2023-12-26T02:28:44.998Z,95840.81
2023-12-26T02:29:50.248Z,95840.97
2023-12-26T02:30:53.322Z,95842.25
2023-12-26T02:31:56.240Z,95839.78
2023-12-26T02:32:59.637Z,95840.63
2023-12-26T02:34:02.360Z,95846.22
2023-12-26T02:35:06.687Z,95840.38
2023-12-26T02:36:08.771Z,95846.34
2023-12-26T02:37:10.472Z,95852.00
2023-12-26T02:38:12.269Z,95850.16
2023-12-26T02:39:15.366Z,95856.94
2023-12-26T02:40:17.190Z,95851.28
2023-12-26T02:41:18.753Z,95854.59
2023-12-26T02:42:22.814Z,95853.78
2023-12-26T02:43:27.073Z,95853.88
2023-12-26T02:44:28.925Z,95847.22
2023-12-26T02:45:30.505Z,95850.41
2023-12-26T02:46:32.093Z,95848.88
2023-12-26T02:47:33.669Z,95850.59
2023-12-26T02:48:35.493Z,95852.88
2023-12-26T02:49:37.247Z,95848.13
2023-12-26T02:50:39.250Z,95851.88
2023-12-26T02:51:41.128Z,95851.75
2023-12-26T02:52:44.156Z,95853.94
2023-12-26T02:53:46.375Z,95850.81
2023-12-26T02:54:50.813Z,95854.59
2023-12-26T02:55:55.524Z,95850.81
2023-12-26T02:56:57.208Z,95855.13
2023-12-26T02:57:58.791Z,95858.91
2023-12-26T02:59:00.348Z,95857.78
2023-12-26T03:00:02.135Z,95860.94
2023-12-26T03:01:03.917Z,95860.13
2023-12-26T03:02:05.535Z,95850.69
2023-12-26T03:03:07.894Z,95852.19
2023-12-26T03:04:09.484Z,95858.03
2023-12-26T03:05:11.162Z,95857.19
2023-12-26T03:06:12.778Z,95856.31
2023-12-26T03:07:14.386Z,95857.00
2023-12-26T03:08:16.262Z,95860.81
2023-12-26T03:09:18.433Z,95864.50
2023-12-26T03:10:20.009Z,95865.50
2023-12-26T03:11:21.513Z,95865.63
2023-12-26T03:12:23.073Z,95870.97
2023-12-26T03:13:25.110Z,95866.78
2023-12-26T03:14:26.786Z,95867.44
2023-12-26T03:15:28.677Z,95863.31
2023-12-26T03:16:30.211Z,95861.31
2023-12-26T03:17:31.992Z,95871.38
2023-12-26T03:18:33.723Z,95867.09
2023-12-26T03:19:35.986Z,95863.56
2023-12-26T03:20:37.716Z,95875.06
2023-12-26T03:21:40.362Z,95871.56
2023-12-26T03:22:42.193Z,95877.91
2023-12-26T03:23:43.994Z,95868.72
2023-12-26T03:24:45.954Z,95869.22
2023-12-26T03:25:49.384Z,95880.66
2023-12-26T03:26:50.922Z,95872.22
2023-12-26T03:27:55.326Z,95868.28
2023-12-26T03:28:56.862Z,95878.16
2023-12-26T03:29:58.555Z,95872.09
2023-12-26T03:31:02.948Z,95876.09
2023-12-26T03:32:04.772Z,95882.09
2023-12-26T03:33:07.085Z,95872.84
2023-12-26T03:34:08.960Z,95873.31
2023-12-26T03:35:11.208Z,95863.72
2023-12-26T03:36:13.554Z,95870.03
2023-12-26T03:37:15.260Z,95868.69
2023-12-26T03:38:16.869Z,95866.03
2023-12-26T03:39:18.597Z,95869.31
2023-12-26T03:40:20.239Z,95866.50
2023-12-26T03:41:21.810Z,95871.38
2023-12-26T03:42:23.412Z,95876.88
2023-12-26T03:43:25.778Z,95872.09
2023-12-26T03:44:28.203Z,95872.50
2023-12-26T03:45:30.374Z,95873.22
2023-12-26T03:46:32.807Z,95867.34
2023-12-26T03:47:35.541Z,95871.16
2023-12-26T03:48:37.737Z,95869.09
2023-12-26T03:49:39.770Z,95874.09
2023-12-26T03:50:41.683Z,95880.88
2023-12-26T03:51:45.429Z,95875.13
2023-12-26T03:52:47.289Z,95869.31
2023-12-26T03:53:48.841Z,95869.00
2023-12-26T03:54:50.394Z,95881.09
2023-12-26T03:55:51.937Z,95870.97
2023-12-26T03:56:53.513Z,95875.78
2023-12-26T03:57:55.094Z,95878.94
2023-12-26T03:58:56.625Z,95879.56
2023-12-26T03:59:58.195Z,95883.41
2023-12-26T04:00:59.807Z,95892.19
2023-12-26T04:02:02.693Z,95872.34
2023-12-26T04:03:04.765Z,95880.91
2023-12-26T04:04:06.545Z,95880.59
2023-12-26T04:05:09.304Z,95886.19
2023-12-26T04:06:11.281Z,95876.47
2023-12-26T04:07:13.217Z,95876.91
2023-12-26T04:08:15.007Z,95879.16
2023-12-26T04:09:19.719Z,95875.56
2023-12-26T04:10:21.537Z,95884.66
2023-12-26T04:11:24.069Z,95876.22
2023-12-26T04:12:25.659Z,95873.41
2023-12-26T04:13:27.335Z,95872.72
2023-12-26T04:14:28.871Z,95867.28
2023-12-26T04:15:31.152Z,95877.41
2023-12-26T04:16:32.769Z,95869.63
2023-12-26T04:17:34.639Z,95874.25
2023-12-26T04:18:36.433Z,95875.28
2023-12-26T04:19:38.270Z,95881.59
2023-12-26T04:20:40.026Z,95874.31
2023-12-26T04:21:42.178Z,95875.56
2023-12-26T04:22:44.746Z,95882.72
2023-12-26T04:23:46.770Z,95880.25
2023-12-26T04:24:48.359Z,95884.66
2023-12-26T04:25:50.344Z,95883.19
2023-12-26T04:26:52.050Z,95882.03
2023-12-26T04:27:54.736Z,95877.72
2023-12-26T04:28:57.352Z,95871.91
2023-12-26T04:29:59.008Z,95880.88
2023-12-26T04:31:01.533Z,95874.56
2023-12-26T04:32:03.811Z,95873.59
2023-12-26T04:33:06.997Z,95871.28
2023-12-26T04:34:09.139Z,95867.97
2023-12-26T04:35:10.992Z,95870.56
2023-12-26T04:36:13.576Z,95861.97
2023-12-26T04:37:15.198Z,95870.94
2023-12-26T04:38:16.712Z,95873.75
2023-12-26T04:39:19.503Z,95873.59
2023-12-26T04:40:21.370Z,95877.41
2023-12-26T04:41:22.957Z,95876.41
2023-12-26T04:42:24.663Z,95881.81
2023-12-26T04:43:27.307Z,95875.06
2023-12-26T04:44:28.947Z,95883.28
2023-12-26T04:45:30.545Z,95883.34
2023-12-26T04:46:32.357Z,95877.41
2023-12-26T04:47:33.949Z,95885.84
2023-12-26T04:48:35.972Z,95888.50
2023-12-26T04:49:37.941Z,95887.31
2023-12-26T04:50:40.144Z,95886.19
2023-12-26T04:51:41.743Z,95887.47
2023-12-26T04:52:43.624Z,95881.94
2023-12-26T04:53:47.073Z,95883.28
2023-12-26T04:54:48.639Z,95886.91
2023-12-26T04:55:50.145Z,95888.91
2023-12-26T04:56:51.790Z,95888.09
2023-12-26T04:57:53.712Z,95895.22
2023-12-26T04:58:55.336Z,95892.38
2023-12-26T04:59:57.080Z,95887.13
2023-12-26T05:01:00.759Z,95889.69
2023-12-26T05:02:02.525Z,95899.75
2023-12-26T05:03:05.107Z,95901.59
2023-12-26T05:04:07.299Z,95901.91
2023-12-26T05:05:08.900Z,95900.94
2023-12-26T05:06:10.548Z,95909.06
2023-12-26T05:07:12.237Z,95914.97
2023-12-26T05:08:13.735Z,95909.81
2023-12-26T05:09:16.939Z,95909.38
2023-12-26T05:10:19.165Z,95911.75
2023-12-26T05:11:24.300Z,95903.66
2023-12-26T05:12:27.628Z,95898.03
2023-12-26T05:13:29.440Z,95903.34
2023-12-26T05:14:31.082Z,95908.66
2023-12-26T05:15:32.621Z,95906.50
2023-12-26T05:16:41.189Z,95909.66
2023-12-26T05:17:44.804Z,95909.81
2023-12-26T05:18:46.831Z,95915.03
2023-12-26T05:19:48.420Z,95915.50
2023-12-26T05:20:50.020Z,95919.28
2023-12-26T05:21:52.405Z,95919.63
2023-12-26T05:22:55.349Z,95916.03
2023-12-26T05:23:57.313Z,95921.97
2023-12-26T05:24:59.481Z,95918.69
2023-12-26T05:26:07.706Z,95923.75
2023-12-26T05:27:13.802Z,95924.44
2023-12-26T05:28:15.389Z,95922.78
2023-12-26T05:29:17.313Z,95925.75
2023-12-26T05:30:19.111Z,95931.75
2023-12-26T05:31:21.571Z,95926.63
2023-12-26T05:32:23.768Z,95937.53
2023-12-26T05:33:25.532Z,95941.38
2023-12-26T05:34:27.195Z,95942.06
2023-12-26T05:35:28.795Z,95934.63
2023-12-26T05:36:30.875Z,95935.28
2023-12-26T05:37:32.531Z,95937.94
2023-12-26T05:38:34.069Z,95941.44
2023-12-26T05:39:35.614Z,95938.63
2023-12-26T05:40:39.256Z,95934.81
2023-12-26T05:41:43.841Z,95936.72
2023-12-26T05:42:48.010Z,95938.41
2023-12-26T05:43:49.801Z,95923.63
2023-12-26T05:44:52.176Z,95929.47
2023-12-26T05:45:54.218Z,95924.94
2023-12-26T05:46:55.762Z,95927.22
2023-12-26T05:47:57.624Z,95920.25
2023-12-26T05:48:59.950Z,95929.88
2023-12-26T05:50:02.247Z,95924.75
2023-12-26T05:51:04.334Z,95929.31
2023-12-26T05:52:06.296Z,95928.59
2023-12-26T05:53:08.611Z,95920.13
2023-12-26T05:54:10.259Z,95925.28
2023-12-26T05:55:11.940Z,95930.63
2023-12-26T05:56:13.600Z,95934.47
2023-12-26T05:57:15.672Z,95932.63
2023-12-26T05:58:18.133Z,95935.59
2023-12-26T05:59:19.719Z,95934.06
2023-12-26T06:00:21.498Z,95934.97
2023-12-26T06:01:23.341Z,95941.13
2023-12-26T06:02:24.895Z,95933.69
2023-12-26T06:03:27.172Z,95937.69
2023-12-26T06:04:28.752Z,95933.88
2023-12-26T06:05:30.615Z,95940.38
2023-12-26T06:06:32.480Z,95945.78
2023-12-26T06:07:34.744Z,95939.84
2023-12-26T06:08:37.764Z,95939.03
2023-12-26T06:09:39.516Z,95943.66
2023-12-26T06:10:42.113Z,95946.16
2023-12-26T06:11:43.758Z,95942.03
2023-12-26T06:12:45.553Z,95947.19
2023-12-26T06:13:47.046Z,95944.84
2023-12-26T06:14:48.618Z,95936.50
2023-12-26T06:15:50.241Z,95946.97
2023-12-26T06:16:52.165Z,95947.84
2023-12-26T06:17:53.814Z,95945.31
2023-12-26T06:18:55.819Z,95952.78
2023-12-26T06:19:57.653Z,95948.00
2023-12-26T06:20:59.386Z,95952.50
2023-12-26T06:22:01.059Z,95949.66
2023-12-26T06:23:04.312Z,95947.19
2023-12-26T06:24:05.968Z,95949.50
2023-12-26T06:25:08.205Z,95948.66
2023-12-26T06:26:10.101Z,95941.41
2023-12-26T06:27:12.260Z,95955.09
2023-12-26T06:28:14.134Z,95950.28
2023-12-26T06:29:16.841Z,95945.66
2023-12-26T06:30:18.648Z,95949.78
2023-12-26T06:31:20.578Z,95950.34
2023-12-26T06:32:22.801Z,95930.78
2023-12-26T06:33:24.587Z,95942.34
2023-12-26T06:34:26.501Z,95937.56
2023-12-26T06:35:28.154Z,95944.03
2023-12-26T06:36:33.102Z,95941.81
2023-12-26T06:37:35.540Z,95947.13
2023-12-26T06:38:37.620Z,95945.19
2023-12-26T06:39:40.379Z,95942.34
2023-12-26T06:40:42.230Z,95951.31
2023-12-26T06:41:44.430Z,95948.47
2023-12-26T06:42:46.214Z,95941.53
2023-12-26T06:43:47.791Z,95946.97
2023-12-26T06:44:49.486Z,95952.94
2023-12-26T06:45:51.131Z,95943.16
2023-12-26T06:46:53.999Z,95950.41
2023-12-26T06:47:55.822Z,95951.59
2023-12-26T06:48:58.540Z,95952.28
2023-12-26T06:50:01.127Z,95952.41
2023-12-26T06:51:06.441Z,95957.03
2023-12-26T06:52:08.056Z,95956.06
2023-12-26T06:53:09.606Z,95964.34
2023-12-26T06:54:12.502Z,95965.56
2023-12-26T06:55:14.219Z,95963.75
2023-12-26T06:56:16.673Z,95969.88
2023-12-26T06:57:18.538Z,95966.22
2023-12-26T06:58:20.235Z,95972.69
2023-12-26T06:59:21.892Z,95975.69
2023-12-26T07:00:23.717Z,95967.03
2023-12-26T07:01:26.434Z,95971.69
2023-12-26T07:02:28.930Z,95981.13
2023-12-26T07:03:30.769Z,95982.47
2023-12-26T07:04:32.732Z,95974.19
2023-12-26T07:05:34.483Z,95981.13
2023-12-26T07:06:36.519Z,95978.81
2023-12-26T07:07:38.154Z,95976.31
2023-12-26T07:08:39.718Z,95979.81
2023-12-26T07:09:41.283Z,95974.97
2023-12-26T07:10:42.833Z,95981.59
2023-12-26T07:11:44.443Z,95981.50
2023-12-26T07:12:46.933Z,95977.00
2023-12-26T07:13:50.387Z,95985.59
2023-12-26T07:14:51.885Z,95975.47
2023-12-26T07:15:53.703Z,95983.28
2023-12-26T07:16:55.334Z,95985.44
2023-12-26T07:17:59.812Z,95987.97
2023-12-26T07:19:01.850Z,95984.13
2023-12-26T07:20:03.633Z,95985.09
2023-12-26T07:21:05.182Z,95981.09
2023-12-26T07:22:07.065Z,95976.44
2023-12-26T07:23:09.119Z,95979.09
2023-12-26T07:24:10.733Z,95977.47
2023-12-26T07:25:12.277Z,95978.47
2023-12-26T07:26:14.324Z,95984.56
2023-12-26T07:27:15.943Z,95982.78
2023-12-26T07:28:18.429Z,95991.03
2023-12-26T07:29:20.423Z,95983.63
2023-12-26T07:30:22.110Z,95987.75
2023-12-26T07:31:24.157Z,95991.56
2023-12-26T07:32:25.757Z,95987.75
2023-12-26T07:33:27.428Z,95997.19
2023-12-26T07:34:29.192Z,95995.16
2023-12-26T07:35:32.242Z,96001.34
2023-12-26T07:36:33.811Z,96019.53
2023-12-26T07:37:35.356Z,96008.09
2023-12-26T07:38:36.909Z,96004.00
2023-12-26T07:39:38.510Z,96000.66
2023-12-26T07:40:40.908Z,96012.25
2023-12-26T07:41:42.708Z,96008.13
2023-12-26T07:42:44.223Z,96005.31
2023-12-26T07:43:46.177Z,95999.81
2023-12-26T07:44:50.086Z,96005.44
2023-12-26T07:45:51.786Z,96004.91
2023-12-26T07:46:53.309Z,96012.19
2023-12-26T07:47:55.781Z,96014.69
2023-12-26T07:48:57.897Z,96018.19
2023-12-26T07:50:00.125Z,96018.84
2023-12-26T07:51:01.924Z,96022.19
2023-12-26T07:52:03.790Z,96012.34
2023-12-26T07:53:05.570Z,96019.50
2023-12-26T07:54:07.148Z,96020.84
2023-12-26T07:55:08.978Z,96021.28
2023-12-26T07:56:10.542Z,96026.09
2023-12-26T07:57:12.142Z,96016.13
2023-12-26T07:58:14.028Z,96022.59
2023-12-26T07:59:15.557Z,96023.47
2023-12-26T08:00:17.795Z,96030.41
2023-12-26T08:01:19.926Z,96030.09
2023-12-26T08:02:21.759Z,96018.78
2023-12-26T08:03:23.642Z,96027.91
2023-12-26T08:04:25.273Z,96023.47
2023-12-26T08:05:26.865Z,96028.59
2023-12-26T08:06:28.800Z,96026.75
2023-12-26T08:07:31.079Z,96029.56
2023-12-26T08:08:32.688Z,96039.84
2023-12-26T08:09:34.323Z,96025.16
2023-12-26T08:10:36.422Z,96034.06
2023-12-26T08:11:38.362Z,96030.09
2023-12-26T08:12:42.065Z,96036.22
2023-12-26T08:13:45.224Z,96029.13
2023-12-26T08:14:46.766Z,96034.41
2023-12-26T08:15:48.316Z,96040.38
2023-12-26T08:16:49.864Z,96033.75
2023-12-26T08:17:52.719Z,96026.59
2023-12-26T08:18:57.968Z,96030.41
2023-12-26T08:19:59.734Z,96028.75
2023-12-26T08:21:02.058Z,96037.69
2023-12-26T08:22:03.826Z,96036.50
2023-12-26T08:23:05.739Z,96036.53
2023-12-26T08:24:08.555Z,96042.66
2023-12-26T08:25:10.749Z,96045.47
2023-12-26T08:26:12.225Z,96048.75
2023-12-26T08:27:13.764Z,96054.53
2023-12-26T08:28:15.429Z,96057.03
2023-12-26T08:29:17.030Z,96061.50
2023-12-26T08:30:19.578Z,96059.38
2023-12-26T08:31:21.218Z,96064.50
2023-12-26T08:32:22.885Z,96061.16
2023-12-26T08:33:25.948Z,96065.31
2023-12-26T08:34:27.825Z,96066.00
2023-12-26T08:35:29.828Z,96066.63
2023-12-26T08:36:31.488Z,96075.25
2023-12-26T08:37:33.055Z,96079.88
2023-12-26T08:38:34.881Z,96076.88
2023-12-26T08:39:36.528Z,96079.88
2023-12-26T08:40:38.059Z,96071.41
2023-12-26T08:41:39.548Z,96085.22
2023-12-26T08:42:41.077Z,96073.63
2023-12-26T08:43:42.677Z,96081.91
2023-12-26T08:44:44.236Z,96088.81
2023-12-26T08:45:45.843Z,96083.69
2023-12-26T08:46:47.443Z,96090.31
2023-12-26T08:47:51.312Z,96089.81
2023-12-26T08:48:53.062Z,96088.81
2023-12-26T08:49:54.621Z,96086.16
2023-12-26T08:50:56.332Z,96090.47
2023-12-26T08:51:58.019Z,96100.94
2023-12-26T08:52:59.496Z,96093.47
2023-12-26T08:54:01.025Z,96104.22
2023-12-26T08:55:02.801Z,96106.56
2023-12-26T08:56:04.756Z,96104.03
2023-12-26T08:57:06.527Z,96114.16
2023-12-26T08:58:09.205Z,96112.03
2023-12-26T08:59:10.750Z,96118.44
2023-12-26T09:00:15.193Z,96117.13
2023-12-26T09:01:16.890Z,96117.31
2023-12-26T09:02:18.837Z,96121.75
2023-12-26T09:03:20.462Z,96114.44
2023-12-26T09:04:23.671Z,96120.75
2023-12-26T09:05:25.255Z,96131.19
2023-12-26T09:06:26.889Z,96136.19
2023-12-26T09:07:28.968Z,96129.53
2023-12-26T09:08:30.554Z,96138.66
2023-12-26T09:09:32.146Z,96136.03
2023-12-26T09:10:33.724Z,96134.38
2023-12-26T09:11:36.514Z,96144.34
2023-12-26T09:12:38.075Z,96137.50
2023-12-26T09:13:39.565Z,96135.16
2023-12-26T09:14:41.865Z,96139.69
2023-12-26T09:15:44.745Z,96136.47
2023-12-26T09:16:46.300Z,96141.13
2023-12-26T09:17:48.257Z,96149.38
2023-12-26T09:18:49.913Z,96149.09
2023-12-26T09:19:52.032Z,96157.41
2023-12-26T09:20:53.511Z,96149.09
2023-12-26T09:21:55.007Z,96150.63
2023-12-26T09:22:56.792Z,96153.09
2023-12-26T09:23:58.488Z,96165.53
2023-12-26T09:25:00.278Z,96152.94
2023-12-26T09:26:05.609Z,96159.72
2023-12-26T09:27:09.845Z,96150.41
2023-12-26T09:28:14.425Z,96158.69
2023-12-26T09:29:16.019Z,96156.91
2023-12-26T09:30:19.762Z,96165.69
2023-12-26T09:31:22.353Z,96159.56
2023-12-26T09:32:23.887Z,96159.56
2023-12-26T09:33:26.391Z,96156.84
2023-12-26T09:34:28.506Z,96161.84
2023-12-26T09:35:33.628Z,96161.72
2023-12-26T09:36:36.827Z,96167.53
2023-12-26T09:37:40.149Z,96169.31
2023-12-26T09:38:43.288Z,96166.84
2023-12-26T09:39:44.793Z,96157.22
2023-12-26T09:40:47.946Z,96158.69
2023-12-26T09:41:54.905Z,96163.38
2023-12-26T09:43:01.462Z,96169.47
2023-12-26T09:44:03.108Z,96175.94
2023-12-26T09:45:05.579Z,96172.66
2023-12-26T09:46:07.244Z,96173.66
2023-12-26T09:47:08.852Z,96181.91
2023-12-26T09:48:12.733Z,96174.38
2023-12-26T09:49:16.861Z,96173.03
2023-12-26T09:50:19.179Z,96176.81
2023-12-26T09:51:24.328Z,96180.72
2023-12-26T09:52:26.968Z,96183.75
2023-12-26T09:53:34.018Z,96183.28
2023-12-26T09:54:38.115Z,96182.63
2023-12-26T09:55:39.785Z,96170.22
2023-12-26T09:56:43.959Z,96177.44
2023-12-26T09:57:46.241Z,96178.31
2023-12-26T09:58:49.832Z,96173.97
2023-12-26T09:59:52.554Z,96170.34
2023-12-26T10:00:54.785Z,96178.09
2023-12-26T10:01:56.371Z,96179.94
2023-12-26T10:02:58.556Z,96179.75
2023-12-26T10:04:01.205Z,96182.66
2023-12-26T10:05:02.873Z,96187.31
2023-12-26T10:06:05.460Z,96184.84
2023-12-26T10:07:07.404Z,96181.41
2023-12-26T10:08:08.932Z,96175.09
2023-12-26T10:09:10.664Z,96178.03
2023-12-26T10:10:13.203Z,96190.16
2023-12-26T10:11:14.990Z,96182.47
2023-12-26T10:12:18.383Z,96184.13
2023-12-26T10:13:19.988Z,96177.53
2023-12-26T10:14:31.824Z,96187.44
2023-12-26T10:15:34.158Z,96177.75
2023-12-26T10:16:35.919Z,96185.63
2023-12-26T10:17:37.685Z,96185.91
2023-12-26T10:18:40.633Z,96180.94
2023-12-26T10:19:42.463Z,96184.78
2023-12-26T10:20:44.098Z,96183.97
2023-12-26T10:21:45.797Z,96187.56
2023-12-26T10:22:47.431Z,96162.63
2023-12-26T10:23:49.122Z,96167.16
2023-12-26T10:24:50.722Z,96163.69
2023-12-26T10:25:52.432Z,96154.84
2023-12-26T10:26:54.043Z,96169.75
2023-12-26T10:27:56.092Z,96175.75
2023-12-26T10:28:57.850Z,96172.91
2023-12-26T10:29:59.415Z,96184.72
2023-12-26T10:31:11.201Z,96185.84
2023-12-26T10:32:13.465Z,96185.03
2023-12-26T10:33:25.205Z,96187.50
2023-12-26T10:34:30.231Z,96176.31
2023-12-26T10:35:32.131Z,96189.81
2023-12-26T10:36:41.788Z,96173.59
2023-12-26T10:37:43.635Z,96180.81
2023-12-26T10:38:46.591Z,96182.31
2023-12-26T10:39:48.289Z,96188.50
2023-12-26T10:40:49.844Z,96186.38
2023-12-26T10:41:54.083Z,96189.03
2023-12-26T10:42:58.929Z,96193.88
2023-12-26T10:44:02.125Z,96188.13
2023-12-26T10:45:07.230Z,96189.38
2023-12-26T10:46:09.548Z,96186.69
2023-12-26T10:47:12.908Z,96186.59
2023-12-26T10:48:16.338Z,96180.22
2023-12-26T10:49:24.212Z,96182.13
2023-12-26T10:50:27.426Z,96179.34
2023-12-26T10:51:31.202Z,96180.03
2023-12-26T10:52:33.183Z,96169.25
2023-12-26T10:53:44.922Z,96174.19
2023-12-26T10:54:48.030Z,96172.41
2023-12-26T10:55:52.088Z,96172.59
2023-12-26T10:56:54.147Z,96168.66
2023-12-26T10:58:21.966Z,96168.50
2023-12-26T11:00:19.960Z,96164.63
2023-12-26T11:02:36.758Z,96168.88
2023-12-26T11:04:53.449Z,96171.59
2023-12-26T11:07:09.984Z,96176.97
2023-12-26T11:09:27.006Z,96175.13
2023-12-26T11:11:43.417Z,96185.78
2023-12-26T11:14:00.227Z,96199.88
2023-12-26T11:16:17.139Z,96198.06
2023-12-26T11:18:34.166Z,96210.81
2023-12-26T11:20:51.072Z,96220.00
2023-12-26T11:23:07.690Z,96216.00
2023-12-26T11:25:24.533Z,96215.16
2023-12-26T11:27:41.354Z,96228.13
2023-12-26T11:29:57.970Z,96221.34
2023-12-26T11:32:14.278Z,96229.78
2023-12-26T11:34:30.970Z,96222.22
2023-12-26T11:36:48.063Z,96228.94
2023-12-26T11:39:04.590Z,96220.16
2023-12-26T11:41:21.334Z,96213.03
2023-12-26T11:43:37.860Z,96217.75
2023-12-26T11:45:54.798Z,96204.13
2023-12-26T11:48:11.661Z,96202.53
2023-12-26T11:50:28.212Z,96208.63
2023-12-26T11:52:44.736Z,96210.16
2023-12-26T11:55:01.518Z,96216.91
2023-12-26T11:57:18.243Z,96207.63
2023-12-26T11:59:34.621Z,96213.50
2023-12-26T12:01:51.405Z,96212.50
2023-12-26T12:04:08.250Z,96214.50
2023-12-26T12:06:26.360Z,96213.97
2023-12-26T12:08:44.622Z,96201.38
2023-12-26T12:11:01.624Z,96190.72
2023-12-26T12:13:17.987Z,96196.34
2023-12-26T12:15:34.935Z,96197.09
2023-12-26T12:17:51.927Z,96207.38
2023-12-26T12:20:08.380Z,96182.56
2023-12-26T12:22:25.150Z,96200.94
2023-12-26T12:24:41.878Z,96200.38
2023-12-26T12:26:58.624Z,96186.72
2023-12-26T12:29:15.065Z,96180.63
2023-12-26T12:31:31.760Z,96175.78
2023-12-26T12:33:48.897Z,96187.63
2023-12-26T12:36:05.384Z,96181.00
2023-12-26T12:38:21.814Z,96195.97
2023-12-26T12:40:38.438Z,96185.69
2023-12-26T12:42:55.175Z,96190.19
2023-12-26T12:45:12.039Z,96195.44
2023-12-26T12:47:28.645Z,96198.75
2023-12-26T12:49:45.446Z,96217.75
2023-12-26T12:52:02.344Z,96206.16
2023-12-26T12:54:18.959Z,96200.84
2023-12-26T12:56:35.401Z,96200.38
2023-12-26T12:58:52.172Z,96198.56
2023-12-26T13:01:09.145Z,96195.31
2023-12-26T13:03:31.722Z,96190.38
2023-12-26T13:05:48.908Z,96187.63
2023-12-26T13:08:05.756Z,96195.25
2023-12-26T13:10:22.525Z,96213.78
2023-12-26T13:12:38.869Z,96223.16
2023-12-26T13:14:55.827Z,96227.94
2023-12-26T13:17:11.952Z,96233.44
2023-12-26T13:19:31.701Z,96231.91
2023-12-26T13:21:50.581Z,96239.09
2023-12-26T13:24:07.513Z,96232.59
2023-12-26T13:26:24.574Z,96223.81
2023-12-26T13:28:41.308Z,96234.75
2023-12-26T13:30:57.949Z,96238.19
2023-12-26T13:33:15.014Z,96236.69
2023-12-26T13:35:31.810Z,96237.69
2023-12-26T13:37:48.310Z,96224.38
2023-12-26T13:40:04.953Z,96221.13